• Join FlightAware (Why Join?)
  • Login
  • US Flag 
05:24AM EDT


 

Airport Tracker/Info


-or-


 

Live Flight TrackerFlight Track Log ✈ UPS1075 ✈ 03-Oct-2013 ✈ KEWR - KRFD

Flight Track Log - Related Links

Times and Time Zones

All times are in EDT time to prevent confusion due to time zone crossing. See the UPS1075 flight status page for this flight to view local times or setup timezone preferences in your user account.

Time Position Orientation Groundspeed Altitude Reporting Facility
EDT Latitude Longitude Course Direction KTS MPH feet Rate Location/Type
10:47PM 40.6841 -74.1739 217° Southwest 161 185 200  Level FlightAware ADS-B
10:47PM 40.6766 -74.1784 204° Southwest 160 184 700 2,160 Climbing FlightAware ADS-B
10:47PM 40.6690 -74.1824 202° Southwest 171 197 1,000 1,560 Climbing FlightAware ADS-B
10:47PM 40.6625 -74.1850 197° South 186 214 1,200 1,440 Climbing FlightAware ADS-B
10:47PM 40.6477 -74.1902 195° South 192 221 1,600 1,800 Climbing FlightAware ADS-B
10:48PM 40.6428 -74.1943 212° Southwest 203 234 1,900 2,760 Climbing FlightAware ADS-B
10:48PM 40.6381 -74.2008 226° Southwest 202 232 2,200 2,700 Climbing FlightAware ADS-B
10:48PM 40.6365 -74.2042 238° Southwest 202 232 2,400 2,460 Climbing FlightAware ADS-B
10:48PM 40.6339 -74.2137 250° West 203 234 2,700 2,400 Climbing FlightAware ADS-B
10:48PM 40.6334 -74.2226 266° West 205 236 3,000 2,760 Climbing FlightAware ADS-B
10:48PM 40.6349 -74.2324 281° West 207 238 3,400 2,760 Climbing FlightAware ADS-B
10:48PM 40.6378 -74.2400 297° West 211 243 3,700 2,400 Climbing FlightAware ADS-B
10:48PM 40.6398 -74.2439 304° West 218 251 3,800 1,260 Climbing FlightAware ADS-B
10:48PM 40.6475 -74.2557 311° West 236 272 4,000 1,380 Climbing FlightAware ADS-B
10:49PM 40.6605 -74.2697 321° Northwest 253 291 4,400 1,860 Climbing FlightAware ADS-B
10:49PM 40.6675 -74.2755 328° Northwest 257 296 4,700 2,760 Climbing FlightAware ADS-B
10:49PM 40.7004 -74.3046 326° Northwest 263 303 6,200 2,760 Climbing FlightAware ADS-B
10:50PM 40.7162 -74.3207 322° Northwest 269 310 7,000 2,880 Climbing FlightAware ADS-B
10:50PM 40.7286 -74.3326 324° Northwest 271 312 7,600 2,880 Climbing FlightAware ADS-B
10:50PM 40.7445 -74.3467 326° Northwest 273 314 8,300 2,880 Climbing FlightAware ADS-B
10:50PM 40.7615 -74.3616 326° Northwest 277 319 9,100 2,820 Climbing FlightAware ADS-B
10:50PM 40.7668 -74.3664 326° Northwest 279 321 9,300 2,400 Climbing FlightAware ADS-B
10:51PM 40.7848 -74.3830 325° Northwest 280 322 10,000 2,040 Climbing FlightAware ADS-B
10:51PM 40.8087 -74.4052 325° Northwest 301 346 10,600 1,200 Climbing FlightAware ADS-B
10:52PM 40.8550 -74.4470 326° Northwest 344 396 11,200 1,020 Climbing FlightAware
10:52PM 40.8677 -74.4587 325° Northwest 352 405 11,400 1,860 Climbing FlightAware ADS-B
10:52PM 40.9118 -74.4977 326° Northwest 361 415 12,500 2,160 Climbing FlightAware ADS-B
10:53PM 41.0030 -74.5760 327° Northwest 375 432 14,900 2,040 Climbing FlightAware
10:54PM 41.0490 -74.6170 326° Northwest 383 441 15,900 1,980 Climbing FlightAware
10:55PM 41.1040 -74.6670 326° Northwest 387 445 17,200 2,100 Climbing FlightAware
10:55PM 41.1270 -74.6890 324° Northwest 388 447 17,700 1,920 Climbing FlightAware
10:55PM 41.1480 -74.7230 309° West 385 443 18,300 1,860 Climbing FlightAware
10:56PM 41.1790 -74.7920 301° West 389 448 19,400 1,740 Climbing FlightAware
10:56PM 41.2130 -74.8710 300° West 396 456 20,400 1,620 Climbing FlightAware
10:57PM 41.2440 -74.9430 300° West 403 464 21,300 1,500 Climbing FlightAware
10:58PM 41.2800 -75.0250 300° West 408 470 22,200 1,560 Climbing FlightAware
10:58PM 41.3100 -75.0960 299° West 411 473 23,200 1,680 Climbing FlightAware
10:59PM 41.3440 -75.1730 300° West 414 476 24,200 1,800 Climbing FlightAware
10:59PM 41.3800 -75.2570 300° West 418 481 25,400 1,860 Climbing FlightAware
11:00PM 41.4080 -75.3230 300° West 420 483 26,300 1,620 Climbing FlightAware
11:00PM 41.4470 -75.4130 300° West 426 490 27,300 1,500 Climbing FlightAware
11:01PM 41.4800 -75.5000 297° West 434 499 28,200 1,380 Climbing FlightAware
11:02PM 41.5050 -75.5850 291° West 438 504 29,000 1,320 Climbing FlightAware
11:02PM 41.5220 -75.6690 285° West 442 509 29,700 1,380 Climbing FlightAware
11:03PM 41.5340 -75.7680 279° West 442 509 30,600 1,680 Climbing FlightAware
11:03PM 41.5450 -75.8660 279° West 435 501 31,800 1,800 Climbing FlightAware
11:04PM 41.5540 -75.9520 278° West 433 498 32,700 1,500 Climbing FlightAware
11:05PM 41.5650 -76.0450 279° West 433 498 33,500 1,320 Climbing FlightAware
11:05PM 41.5780 -76.1660 278° West 432 497 34,500 1,260 Climbing FlightAware
11:06PM 41.5850 -76.2330 278° West 432 497 35,000 1,200 Climbing FlightAware
11:06PM 41.5960 -76.3480 277° West 429 494 35,900 780 Climbing FlightAware
11:07PM 41.6060 -76.4350 279° West 422 486 36,000 60 Climbing FlightAware
11:08PM 41.6150 -76.5260 278° West 419 482 36,000  Level FlightAware
11:08PM 41.6240 -76.6110 278° West 423 487 36,000  Level FlightAware
11:09PM 41.6320 -76.6930 277° West 427 491 36,000  Level FlightAware
11:09PM 41.6420 -76.7870 278° West 430 495 36,000  Level FlightAware
11:10PM 41.6510 -76.8800 277° West 433 498 36,000  Level FlightAware
11:10PM 41.6600 -76.9700 278° West 434 499 36,000  Level FlightAware
11:11PM 41.6700 -77.0690 278° West 433 498 36,000  Level FlightAware
11:12PM 41.6790 -77.1570 278° West 433 498 36,000  Level FlightAware
11:12PM 41.6880 -77.2530 277° West 432 497 36,000  Level FlightAware
11:13PM 41.6970 -77.3480 277° West 431 496 36,000  Level FlightAware
11:13PM 41.7060 -77.4390 278° West 430 495 36,000  Level FlightAware
11:14PM 41.7150 -77.5330 277° West 428 493 36,000  Level FlightAware
11:15PM 41.7240 -77.6250 277° West 427 491 36,000  Level FlightAware
11:15PM 41.7310 -77.7020 277° West 425 489 36,000  Level FlightAware
11:16PM 41.7410 -77.8050 277° West 423 487 36,000  Level FlightAware
11:16PM 41.7490 -77.8960 277° West 421 484 36,000  Level FlightAware
11:17PM 41.7570 -77.9880 277° West 418 481 36,000  Level FlightAware
11:17PM 41.7660 -78.0780 278° West 417 480 36,000  Level FlightAware
11:18PM 41.7730 -78.1660 276° West 416 479 36,000  Level FlightAware
11:19PM 41.7810 -78.2580 277° West 416 479 36,000  Level FlightAware
11:19PM 41.7890 -78.3490 277° West 415 478 36,000  Level FlightAware
11:20PM 41.7960 -78.4350 276° West 415 478 36,000  Level FlightAware
11:20PM 41.8040 -78.5270 277° West 414 476 36,000  Level FlightAware
11:21PM 41.8120 -78.6140 277° West 414 476 36,000  Level FlightAware
11:22PM 41.8190 -78.7050 276° West 414 476 36,000  Level FlightAware
11:22PM 41.8270 -78.7940 277° West 415 478 36,000  Level FlightAware
11:23PM 41.8350 -78.8850 277° West 415 478 36,000  Level FlightAware
11:23PM 41.8420 -78.9730 276° West 416 479 36,000  Level FlightAware
11:24PM 41.8490 -79.0650 276° West 416 479 36,000  Level FlightAware
11:24PM 41.8560 -79.1550 276° West 417 480 36,000  Level FlightAware
11:25PM 41.8630 -79.2440 276° West 417 480 36,000  Level FlightAware
11:26PM 41.8700 -79.3340 276° West 418 481 36,000  Level FlightAware
11:26PM 41.8780 -79.4390 276° West 419 482 36,000  Level FlightAware
11:27PM 41.8850 -79.5290 276° West 420 483 36,000  Level FlightAware
11:27PM 41.8920 -79.6190 276° West 419 482 36,000  Level FlightAware
11:28PM 41.9000 -79.7230 276° West 420 483 36,000  Level FlightAware
11:29PM 41.9060 -79.8140 275° West 420 483 36,000  Level FlightAware
11:29PM 41.9120 -79.8900 276° West 420 483 36,000  Level FlightAware
11:30PM 41.9190 -79.9970 275° West 420 483 36,000  Level FlightAware
11:30PM 41.9250 -80.0870 275° West 421 484 36,000  Level FlightAware
11:31PM 41.9320 -80.1800 276° West 424 488 36,000  Level FlightAware
11:32PM 41.9390 -80.2720 276° West 424 488 36,000  Level FlightAware
11:32PM 41.9460 -80.3740 275° West 424 488 36,000  Level FlightAware
11:33PM 41.9540 -80.4820 276° West 424 488 36,000  Level FlightAware
11:33PM 41.9600 -80.5620 276° West 424 488 36,000  Level FlightAware
11:34PM 41.9660 -80.6530 275° West 423 487 36,000  Level FlightAware
11:35PM 41.9720 -80.7440 275° West 424 488 36,000  Level FlightAware
11:35PM 41.9790 -80.8490 275° West 424 488 36,000  Level FlightAware
11:36PM 41.9850 -80.9310 276° West 425 489 36,000  Level FlightAware
11:36PM 41.9910 -81.0210 275° West 426 490 36,000  Level FlightAware
11:37PM 41.9960 -81.1140 274° West 426 490 36,000  Level FlightAware
11:38PM 42.0030 -81.2210 275° West 426 490 36,000  Level FlightAware
11:38PM 42.0080 -81.2950 275° West 426 490 36,000  Level FlightAware
11:39PM 42.0160 -81.4120 275° West 427 491 36,000  Level FlightAware
11:39PM 42.0210 -81.5060 274° West 426 490 36,000  Level FlightAware
11:40PM 42.0270 -81.6030 275° West 425 489 36,000  Level FlightAware
11:41PM 42.0320 -81.6840 275° West 425 489 36,000  Level FlightAware
11:41PM 42.0380 -81.7800 275° West 425 489 36,000  Level FlightAware
11:42PM 42.0430 -81.8760 274° West 426 490 36,000  Level FlightAware
11:42PM 42.0480 -81.9620 275° West 426 490 36,000  Level FlightAware
11:43PM 42.0520 -82.0340 274° West 427 491 36,000  Level FlightAware
11:43PM 42.0570 -82.1270 274° West 427 491 36,000  Level FlightAware
11:44PM 42.0620 -82.2180 274° West 427 491 36,000  Level FlightAware
11:44PM 42.0670 -82.3150 274° West 428 493 36,000  Level FlightAware
11:45PM 42.0720 -82.4080 274° West 427 491 36,000  Level FlightAware
11:46PM 42.0770 -82.5070 274° West 428 493 36,000  Level FlightAware
11:46PM 42.0820 -82.6030 274° West 429 494 36,000  Level FlightAware
11:47PM 42.0860 -82.6840 274° West 429 494 36,000  Level FlightAware
11:47PM 42.0910 -82.7810 274° West 429 494 36,000  Level FlightAware
11:48PM 42.0960 -82.8830 274° West 428 493 36,000  Level FlightAware
11:49PM 42.1000 -82.9780 273° West 428 493 36,000  Level FlightAware
11:49PM 42.1040 -83.0600 274° West 427 491 36,000  Level FlightAware
11:50PM 42.1090 -83.1590 274° West 427 491 36,000  Level FlightAware
11:50PM 42.1130 -83.2500 273° West 424 488 36,000  Level FlightAware
11:51PM 42.1180 -83.3480 274° West 419 482 36,000  Level FlightAware
11:51PM 42.1220 -83.4320 274° West 416 479 36,000  Level FlightAware
11:52PM 42.1270 -83.5260 274° West 413 475 36,000  Level FlightAware
11:53PM 42.1310 -83.6180 273° West 411 473 36,000  Level FlightAware
11:53PM 42.1340 -83.7080 273° West 408 470 36,000  Level FlightAware
11:54PM 42.1370 -83.8000 273° West 405 466 36,000  Level FlightAware
11:54PM 42.1400 -83.8930 273° West 403 464 36,000  Level FlightAware
11:55PM 42.1420 -83.9610 272° West 403 464 36,000  Level FlightAware
11:56PM 42.1450 -84.0610 272° West 402 463 36,000  Level FlightAware
11:56PM 42.1480 -84.1560 272° West 402 463 36,000  Level FlightAware
11:57PM 42.1510 -84.2300 273° West 402 463 36,000  Level FlightAware
11:57PM 42.1540 -84.3210 273° West 403 464 36,000  Level FlightAware
11:58PM 42.1570 -84.4270 272° West 402 463 36,000  Level FlightAware
11:59PM 42.1600 -84.5120 273° West 402 463 36,000  Level FlightAware
11:59PM 42.1620 -84.6020 272° West 402 463 36,000  Level FlightAware
12:00AM 42.1640 -84.6880 272° West 402 463 36,000  Level FlightAware
12:00AM 42.1670 -84.7750 273° West 403 464 36,000  Level FlightAware
12:01AM 42.1690 -84.8640 272° West 403 464 36,000  Level FlightAware
12:02AM 42.1700 -84.9490 271° West 405 466 36,000  Level FlightAware
12:02AM 42.1730 -85.0440 272° West 407 468 36,000  Level FlightAware
12:03AM 42.1750 -85.1200 272° West 409 471 36,000  Level FlightAware
12:03AM 42.1770 -85.2250 272° West 410 472 36,000  Level FlightAware
12:04AM 42.1790 -85.3110 272° West 411 473 36,000  Level FlightAware
12:04AM 42.1810 -85.3930 272° West 412 474 36,000  Level FlightAware
12:05AM 42.1830 -85.4930 272° West 413 475 36,000  Level FlightAware
12:06AM 42.1850 -85.5670 272° West 414 476 36,000  Level FlightAware
12:06AM 42.1860 -85.6510 271° West 415 478 36,000  Level FlightAware
12:07AM 42.1880 -85.7500 272° West 417 480 36,000  Level FlightAware
12:07AM 42.1900 -85.8400 272° West 417 480 36,000  Level FlightAware
12:08AM 42.1920 -85.9260 272° West 416 479 36,000  Level FlightAware
12:08AM 42.1930 -86.0200 271° West 415 478 36,000  Level FlightAware
12:09AM 42.1950 -86.1170 272° West 413 475 36,000  Level FlightAware
12:10AM 42.1960 -86.2060 271° West 413 475 36,000  Level FlightAware
12:10AM 42.1970 -86.2900 271° West 412 474 36,000  Level FlightAware
12:11AM 42.1980 -86.4030 271° West 411 473 36,000  Level FlightAware
12:11AM 42.1990 -86.4970 271° West 410 472 36,000  Level FlightAware
12:12AM 42.1990 -86.5810 270° West 413 475 36,000 -300 Level FlightAware
12:13AM 42.2000 -86.6740 271° West 407 468 35,700 -1,500 Descending FlightAware
12:13AM 42.2010 -86.7640 271° West 410 472 34,200 -2,700 Descending FlightAware
12:14AM 42.2010 -86.8440 270° West 412 474 32,700 -2,640 Descending FlightAware
12:14AM 42.2020 -86.9410 271° West 408 470 31,200 -2,400 Descending FlightAware
12:15AM 42.2020 -87.0260 270° West 403 464 29,900 -2,340 Descending FlightAware
12:16AM 42.2030 -87.1180 271° West 399 459 28,500 -2,340 Descending FlightAware
12:16AM 42.2030 -87.1950 270° West 394 453 27,300 -2,460 Descending FlightAware
12:17AM 42.2040 -87.2840 271° West 391 450 25,800 -2,400 Descending FlightAware
12:17AM 42.2040 -87.3600 270° West 388 447 24,500 -1,500 Descending FlightAware
12:18AM 42.2040 -87.4650 270° West 393 452 24,000 -420 Descending FlightAware
12:18AM 42.2040 -87.5370 270° West 393 452 24,000  Level FlightAware
12:19AM 42.2040 -87.6340 270° West 396 456 24,000 -720 Level FlightAware
12:20AM 42.2040 -87.7160 270° West 397 457 23,200 -2,400 Descending FlightAware
12:20AM 42.2040 -87.8080 270° West 404 465 21,200 -3,300 Descending FlightAware
12:21AM 42.2040 -87.8980 270° West 404 465 19,300 -3,000 Descending FlightAware
12:21AM 42.2040 -87.9840 270° West 399 459 17,700 -2,760 Descending FlightAware
12:22AM 42.2030 -88.0690 269° West 392 451 16,200 -2,880 Descending FlightAware
12:23AM 42.2030 -88.1560 270° West 390 449 14,400 -3,000 Descending FlightAware
12:23AM 42.2030 -88.2400 270° West 384 442 12,700 -2,640 Descending FlightAware
12:24AM 42.2020 -88.3250 269° West 372 428 11,300 -1,440 Descending FlightAware
12:24AM 42.2020 -88.4030 270° West 332 382 11,000 -300 Descending FlightAware
12:25AM 42.2020 -88.4690 270° West 292 336 11,000  Level FlightAware
12:26AM 42.2010 -88.5350 269° West 275 316 11,000 -120 Level FlightAware
12:26AM 42.2010 -88.5900 270° West 270 311 10,900 -1,200 Descending FlightAware
12:27AM 42.2000 -88.6350 268° West 264 304 9,800 -2,340 Descending FlightAware
12:27AM 42.2010 -88.6600 273° West 261 300 9,200 -2,280 Descending FlightAware
12:27AM 42.2040 -88.6740 286° West 262 302 8,900 -2,040 Descending FlightAware
12:27AM 42.2060 -88.6800 294° West 261 300 8,800 -2,400 Descending FlightAware
12:27AM 42.2220 -88.7130 303° West 262 302 7,800 -2,460 Descending FlightAware
12:28AM 42.2370 -88.7410 306° West 262 302 7,000 -2,460 Descending FlightAware
12:28AM 42.2450 -88.7560 306° West 262 302 6,500 -2,340 Descending FlightAware
12:28AM 42.2580 -88.7810 305° West 262 302 5,800 -2,340 Descending FlightAware
12:29AM 42.2750 -88.8150 304° West 257 296 4,800 -1,920 Descending FlightAware
12:29AM 42.2870 -88.8420 301° West 227 261 4,400 -1,500 Descending FlightAware
12:29AM 42.2880 -88.8530 277° West 208 239 4,100 -1,800 Descending FlightAware
12:29AM 42.2850 -88.8660 253° West 190 219 3,800 -1,500 Descending FlightAware
12:29AM 42.2810 -88.8740 236° Southwest 182 209 3,600 -1,440 Descending FlightAware
12:30AM 42.2750 -88.8850 234° Southwest 171 197 3,300 -720 Descending FlightAware
12:30AM 42.2670 -88.9060 243° Southwest 146 168 3,200 -180 Descending FlightAware
12:30AM 42.2610 -88.9210 242° Southwest 140 161 3,200 -300 Level FlightAware
12:31AM 42.2550 -88.9370 243° Southwest 143 165 3,000 -480 Descending FlightAware
12:31AM 42.2490 -88.9520 242° Southwest 122 140 2,900 -360 Descending FlightAware
12:31AM 42.2450 -88.9630 244° Southwest 107 123 2,800 -660 Descending FlightAware
12:32AM 42.2410 -88.9750 246° West 103 119 2,500 -780 Descending FlightAware
12:32AM 42.2360 -88.9860 238° Southwest 101 116 2,300 -600 Descending FlightAware
12:32AM 42.2320 -88.9970 244° Southwest 100 115 2,100 -660 Descending FlightAware
12:33AM 42.2280 -89.0090 246° West 96 110 1,900 -540 Descending FlightAware
12:33AM 42.2250 -89.0180 246° West 103 119 1,800 -540 Descending FlightAware
12:33AM 42.2210 -89.0310 247° West 103 119 1,600 -480 Descending FlightAware
12:34AM 42.2170 -89.0420 244° Southwest 108 124 1,500 -480 Descending FlightAware
12:34AM 42.2120 -89.0560 244° Southwest 109 125 1,300 -660 Descending FlightAware
12:34AM 42.2080 -89.0660 242° Southwest 114 131 1,100 -540 Descending FlightAware
12:35AM 42.2040 -89.0780 246° West 119 137 1,000 -180 Descending FlightAware
12:35AM 42.1990 -89.0930 246° West 119 137 1,000  Level FlightAware